Time;durP1;ratioP1;P1;durP2;ratioP2;P2;SDS_P1;SDS_P2;PMS_P1;PMS_P2;Temp;Humidity;BMP_temperature;BMP_pressure;BME280_temperature;BME280_humidity;BME280_pressure;Samples;Min_cycle;Max_cycle;Signal;HPM_P1;HPM_P2
2021/06/24 00:02:14;;;;;;;53.15;11.10;;;;;;;24.99;60.97;99560.56;1765875;80;21013;-42
2021/06/24 00:04:41;;;;;;;44.00;10.32;;;;;;;24.95;61.00;99551.61;1769381;80;21100;-42
2021/06/24 00:07:09;;;;;;;52.15;10.45;;;;;;;24.93;61.07;99556.84;1772495;80;20980;-42
2021/06/24 00:09:36;;;;;;;52.10;10.98;;;;;;;24.88;61.12;99554.66;1771076;80;20948;-42
2021/06/24 00:12:04;;;;;;;50.20;11.33;;;;;;;24.85;61.34;99553.52;1777360;80;21099;-42
2021/06/24 00:14:33;;;;;;;53.35;11.55;;;;;;;24.82;61.47;99549.48;1766499;80;21060;-42
2021/06/24 00:17:02;;;;;;;54.30;11.30;;;;;;;24.79;61.57;99543.44;1774450;80;21120;-42
2021/06/24 00:19:31;;;;;;;52.70;10.90;;;;;;;24.78;61.64;99548.84;1772605;80;21553;-42
2021/06/24 00:21:58;;;;;;;53.58;11.08;;;;;;;24.77;61.65;99544.52;1776265;80;21004;-42
2021/06/24 00:24:25;;;;;;;50.88;11.48;;;;;;;24.76;61.77;99541.58;1766999;80;21016;-42
2021/06/24 00:26:51;;;;;;;56.80;11.20;;;;;;;24.76;61.82;99541.58;1757370;80;21562;-42
2021/06/24 00:29:19;;;;;;;55.38;10.98;;;;;;;24.74;61.84;99542.02;1753196;80;21130;-42
2021/06/24 00:31:45;;;;;;;49.58;11.78;;;;;;;24.73;61.88;99536.34;1768051;80;20964;-42
2021/06/24 00:34:13;;;;;;;45.67;11.95;;;;;;;24.73;61.92;99542.49;1745786;80;21558;-42
2021/06/24 00:36:39;;;;;;;52.88;10.95;;;;;;;24.73;61.95;99539.72;1757896;81;21037;-42
2021/06/24 00:39:07;;;;;;;62.65;11.50;;;;;;;24.72;62.11;99537.55;1758319;80;21080;-42
2021/06/24 00:41:33;;;;;;;47.43;10.98;;;;;;;24.72;61.98;99543.71;1771422;80;21834;-42
2021/06/24 00:44:00;;;;;;;50.33;10.95;;;;;;;24.72;61.93;99535.39;1735416;80;21076;-42
2021/06/24 00:46:27;;;;;;;54.42;11.25;;;;;;;24.72;61.98;99535.39;1767017;80;20992;-42
2021/06/24 00:48:58;;;;;;;38.05;10.08;;;;;;;24.69;61.96;99526.73;1769717;80;21053;-42
2021/06/24 00:51:25;;;;;;;53.42;11.95;;;;;;;24.67;61.91;99527.82;1756379;80;21052;-42
2021/06/24 00:53:53;;;;;;;48.25;11.97;;;;;;;24.66;61.90;99526.88;1772518;80;21852;-42
2021/06/24 00:56:32;;;;;;;52.45;10.88;;;;;;;24.64;61.88;99529.34;1766118;80;21088;-42
2021/06/24 00:59:01;;;;;;;46.48;10.70;;;;;;;24.63;61.90;99525.80;1753860;80;21244;-42
2021/06/24 01:01:31;;;;;;;43.68;11.12;;;;;;;24.60;62.02;99530.84;1762920;80;21044;-42
2021/06/24 01:03:58;;;;;;;;;;;;;;;24.58;62.00;99532.52;1752605;80;20989;-42
2021/06/24 01:06:25;;;;;;;56.18;11.78;;;;;;;24.55;62.14;99527.25;1727304;80;21136;-42
2021/06/24 01:08:52;;;;;;;59.55;11.20;;;;;;;24.44;62.45;99526.09;1779635;80;20944;-42
2021/06/24 01:11:20;;;;;;;49.15;11.38;;;;;;;24.44;62.44;99529.64;1744648;80;21802;-42
2021/06/24 01:13:47;;;;;;;45.92;10.95;;;;;;;24.43;62.41;99526.70;1724160;80;21014;-42
2021/06/24 01:16:14;;;;;;;50.80;11.55;;;;;;;24.41;62.52;99524.98;1721292;80;21337;-42
2021/06/24 01:18:42;;;;;;;39.95;9.55;;;;;;;24.40;62.95;99537.28;1737398;80;21941;-42
2021/06/24 01:21:09;;;;;;;35.65;10.20;;;;;;;24.39;64.47;99534.98;1748172;80;21039;-42
2021/06/24 01:23:40;;;;;;;41.55;9.83;;;;;;;24.37;65.58;99535.42;1761822;80;21616;-42
2021/06/24 01:26:07;;;;;;;42.25;10.38;;;;;;;24.34;65.87;99538.32;1705336;84;21058;-42
2021/06/24 01:28:36;;;;;;;51.05;11.25;;;;;;;24.31;65.38;99537.81;1761575;80;21346;-42
2021/06/24 01:31:03;;;;;;;50.85;11.08;;;;;;;24.31;64.74;99535.81;1767334;80;21220;-42
2021/06/24 01:33:30;;;;;;;53.65;11.80;;;;;;;24.28;64.18;99540.88;1744584;81;21013;-42
2021/06/24 01:36:00;;;;;;;52.10;11.57;;;;;;;24.22;63.84;99536.52;1758149;80;21095;-42
2021/06/24 01:38:27;;;;;;;50.70;11.23;;;;;;;24.21;63.75;99538.34;1752495;80;21462;-42
2021/06/24 01:41:03;;;;;;;48.48;11.22;;;;;;;24.18;63.66;99535.09;1756777;80;21974;-42
2021/06/24 01:43:30;;;;;;;48.17;11.57;;;;;;;24.16;63.66;99545.80;1748858;80;21118;-42
2021/06/24 01:45:58;;;;;;;45.95;10.55;;;;;;;24.14;63.60;99546.27;1730681;80;21601;-42
2021/06/24 01:48:26;;;;;;;44.60;11.68;;;;;;;24.12;63.66;99542.38;1726666;80;21001;-42
2021/06/24 01:50:54;;;;;;;49.38;11.53;;;;;;;24.12;63.79;99551.47;1720018;80;21361;-42
2021/06/24 01:53:21;;;;;;;47.23;11.45;;;;;;;24.12;63.86;99554.23;1745030;80;21072;-42
2021/06/24 01:55:49;;;;;;;52.60;11.35;;;;;;;24.09;63.67;99550.20;1750402;80;22363;-42
2021/06/24 01:58:21;;;;;;;57.45;13.08;;;;;;;24.07;63.79;99548.48;1750195;80;21031;-42
2021/06/24 02:00:57;;;;;;;64.00;13.28;;;;;;;24.06;63.83;99556.65;1767372;80;21130;-42
2021/06/24 02:03:25;;;;;;;66.60;12.90;;;;;;;24.04;63.90;99553.53;1770138;80;21027;-42
2021/06/24 02:05:55;;;;;;;76.22;14.43;;;;;;;24.02;64.16;99554.58;1774792;80;21644;-42
2021/06/24 02:08:23;;;;;;;;;;;;;;;24.03;64.22;99554.14;1777039;80;21827;-42
2021/06/24 02:11:05;;;;;;;65.65;14.15;;;;;;;24.03;64.41;99550.59;1756064;80;20228;-42
2021/06/24 02:13:33;;;;;;;56.08;13.18;;;;;;;23.94;64.76;99554.66;1755054;80;21068;-42
2021/06/24 02:16:01;;;;;;;58.90;14.38;;;;;;;23.97;64.91;99555.14;1740937;80;21048;-42
2021/06/24 02:18:28;;;;;;;68.72;14.73;;;;;;;24.00;64.85;99550.11;1749840;80;21551;-42
2021/06/24 02:20:56;;;;;;;59.15;13.95;;;;;;;24.01;64.71;99555.19;1738535;80;21142;-42
2021/06/24 02:23:28;;;;;;;63.35;14.20;;;;;;;24.02;64.63;99552.59;1770252;80;21804;-42
2021/06/24 02:25:59;;;;;;;60.85;13.95;;;;;;;24.04;64.55;99550.77;1751022;80;21038;-42
2021/06/24 02:28:30;;;;;;;71.25;15.23;;;;;;;24.06;64.56;99552.49;1758023;80;21084;-42
2021/06/24 02:31:02;;;;;;;62.38;13.30;;;;;;;24.06;64.51;99555.27;1767624;80;21410;-42
2021/06/24 02:33:31;;;;;;;61.28;14.53;;;;;;;24.07;64.48;99556.18;1766282;80;21188;-42
2021/06/24 02:36:17;;;;;;;65.15;14.95;;;;;;;24.08;64.40;99558.34;1752577;80;21009;-42
2021/06/24 02:38:44;;;;;;;61.42;15.00;;;;;;;24.09;64.37;99562.67;1762234;80;21538;-42
2021/06/24 02:41:11;;;;;;;68.28;14.15;;;;;;;24.09;64.21;99563.45;1770901;80;21008;-42
2021/06/24 02:43:40;;;;;;;56.02;14.18;;;;;;;24.11;64.22;99566.53;1768749;80;21103;-42
2021/06/24 02:46:07;;;;;;;64.10;14.73;;;;;;;24.12;64.16;99561.16;1773600;80;21164;-42
2021/06/24 02:48:36;;;;;;;65.67;15.03;;;;;;;24.16;63.93;99567.96;1776953;80;20937;-42
2021/06/24 02:51:04;;;;;;;56.08;13.78;;;;;;;24.18;63.87;99573.27;1767314;80;21487;-42
2021/06/24 02:53:35;;;;;;;57.78;13.53;;;;;;;24.22;63.70;99574.52;1763235;80;21011;-42
2021/06/24 02:56:04;;;;;;;65.97;13.85;;;;;;;24.25;63.61;99579.19;1760242;80;21100;-42
2021/06/24 02:58:32;;;;;;;55.90;14.05;;;;;;;24.28;63.36;99582.44;1759372;80;21856;-42
2021/06/24 03:01:01;;;;;;;71.50;14.85;;;;;;;24.31;63.22;99584.31;1768542;80;21617;-42
2021/06/24 03:03:46;;;;;;;67.20;14.20;;;;;;;24.35;63.09;99582.19;1758564;80;20972;-42
2021/06/24 03:06:15;;;;;;;56.70;12.82;;;;;;;24.39;62.87;99580.09;1766223;80;21060;-42
2021/06/24 03:08:43;;;;;;;66.40;14.45;;;;;;;24.46;62.52;99579.06;1761052;80;21542;-42
2021/06/24 03:13:42;;;;;;;61.88;14.23;;;;;;;24.56;62.06;99573.77;1815282;78;23286;-42
2021/06/24 03:16:10;;;;;;;55.30;13.35;;;;;;;24.50;62.05;99573.56;1762354;80;21000;-42
2021/06/24 03:18:38;;;;;;;62.10;13.85;;;;;;;24.55;61.86;99570.22;1783329;79;21582;-42
2021/06/24 03:21:07;;;;;;;52.80;13.50;;;;;;;24.61;61.68;99570.42;1778836;80;20952;-42
2021/06/24 03:23:34;;;;;;;53.78;12.47;;;;;;;24.66;61.46;99566.47;1780071;80;20965;-42
2021/06/24 03:26:00;;;;;;;55.85;12.20;;;;;;;24.72;61.19;99563.12;1782543;80;20932;-42
2021/06/24 03:28:28;;;;;;;60.58;12.07;;;;;;;24.75;60.91;99556.05;1781860;80;21505;-42
2021/06/24 03:30:56;;;;;;;56.08;12.68;;;;;;;24.80;60.56;99549.16;1776041;80;21128;-42
2021/06/24 03:33:25;;;;;;;58.65;13.08;;;;;;;24.84;60.35;99554.73;1779575;80;21460;-42
2021/06/24 03:35:53;;;;;;;54.38;12.78;;;;;;;24.89;60.13;99552.80;1778059;80;20972;-42
2021/06/24 03:38:20;;;;;;;58.55;13.18;;;;;;;24.95;60.04;99553.77;1719698;83;21068;-42
2021/06/24 03:40:47;;;;;;;61.88;11.88;;;;;;;25.02;59.95;99555.52;1733883;82;21115;-42
2021/06/24 03:43:14;;;;;;;56.08;13.80;;;;;;;25.07;59.65;99564.64;1731293;82;21136;-43
2021/06/24 03:45:41;;;;;;;58.17;12.65;;;;;;;25.13;59.94;99560.65;1746693;81;21012;-42
2021/06/24 03:48:08;;;;;;;50.92;12.43;;;;;;;25.15;60.19;99557.59;1720709;83;21031;-42
2021/06/24 03:50:35;;;;;;;61.13;13.43;;;;;;;25.20;60.33;99562.56;1720687;83;21008;-42
2021/06/24 03:53:03;;;;;;;67.75;13.58;;;;;;;25.23;60.24;99564.42;1721271;83;21859;-42
2021/06/24 03:55:42;;;;;;;53.70;13.25;;;;;;;25.28;60.35;99557.50;1720150;83;21180;-42
2021/06/24 03:58:07;;;;;;;66.12;13.98;;;;;;;25.34;60.09;99555.69;1722701;83;20976;-42
2021/06/24 04:00:37;;;;;;;55.50;12.13;;;;;;;25.40;60.22;99552.49;1729650;83;21024;-42
2021/06/24 04:03:06;;;;;;;49.20;12.20;;;;;;;25.45;60.22;99554.06;1719239;82;21658;-42
2021/06/24 04:05:35;;;;;;;50.80;13.10;;;;;;;25.51;60.18;99553.61;1726010;83;21112;-43
2021/06/24 04:08:05;;;;;;;45.33;12.58;;;;;;;25.57;60.20;99557.98;1724281;82;21123;-42
2021/06/24 04:10:32;;;;;;;;;;;;;;;25.64;60.04;99556.94;1710210;83;21008;-42
2021/06/24 04:12:59;;;;;;;;;;;;;;;25.71;59.97;99549.70;1709013;82;20473;-43
2021/06/24 04:15:28;;;;;;;;;;;;;;;25.71;60.16;99546.93;1709829;84;20182;-43
2021/06/24 04:17:55;;;;;;;;;;;;;;;25.73;59.65;99551.42;1723534;83;20187;-43
2021/06/24 04:20:22;;;;;;;;;;;;;;;25.77;59.52;99557.60;1726045;83;21136;-43
2021/06/24 04:22:49;;;;;;;;;;;;;;;25.83;59.60;99565.50;1710468;83;20170;-43
2021/06/24 04:25:18;;;;;;;;;;;;;;;25.87;59.60;99563.34;1716770;83;20147;-43
2021/06/24 04:27:45;;;;;;;;;;;;;;;25.91;58.81;99567.53;1728894;82;20212;-43
2021/06/24 04:30:14;;;;;;;;;;;;;;;25.95;58.47;99564.59;1750137;80;20177;-43
2021/06/24 04:32:43;;;;;;;;;;;;;;;26.01;58.82;99568.33;1765907;81;21729;-43
2021/06/24 04:35:11;;;;;;;;;;;;;;;26.10;59.71;99571.73;1745063;81;20502;-43
2021/06/24 04:37:37;;;;;;;;;;;;;;;26.17;60.26;99568.68;1689552;83;20112;-43
2021/06/24 04:40:07;;;;;;;;;;;;;;;26.23;59.44;99570.43;1732274;82;20126;-43
2021/06/24 04:42:35;;;;;;;;;;;;;;;26.30;58.28;99570.11;1741005;82;20488;-43
2021/06/24 04:45:11;;;;;;;;;;;;;;;26.38;56.59;99563.02;1724462;80;21142;-43
2021/06/24 04:47:40;;;;;;;;;;;;;;;26.46;55.65;99562.72;1734851;80;20254;-43
2021/06/24 04:50:08;;;;;;;;;;;;;;;26.53;54.92;99562.43;1721836;82;20169;-43
2021/06/24 04:52:42;;;;;;;;;;;;;;;26.61;54.38;99563.66;1714299;82;20214;-43
2021/06/24 04:55:10;;;;;;;;;;;;;;;26.66;53.94;99561.66;1699414;82;20183;-43
2021/06/24 04:57:39;;;;;;;;;;;;;;;26.74;54.35;99551.75;1707552;82;21060;-43
2021/06/24 05:00:23;;;;;;;;;;;;;;;26.80;54.66;99554.08;1678951;85;20642;-43
2021/06/24 05:03:10;;;;;;;;;;;;;;;26.87;54.34;99553.02;1706422;83;20089;-43
2021/06/24 05:05:42;;;;;;;;;;;;;;;26.93;54.03;99551.91;1751666;80;20151;-43
2021/06/24 05:08:13;;;;;;;;;;;;;;;26.98;53.53;99556.08;1737144;81;20215;-43
2021/06/24 05:10:39;;;;;;;;;;;;;;;27.04;53.52;99556.39;1738371;80;21088;-43
2021/06/24 05:13:06;;;;;;;;;;;;;;;27.08;53.85;99559.78;1738810;82;20127;-43
2021/06/24 05:15:33;;;;;;;;;;;;;;;27.14;53.85;99562.09;1711039;83;20089;-43
2021/06/24 05:18:00;;;;;;;;;;;;;;;27.21;52.97;99560.97;1709619;83;20536;-43
2021/06/24 05:20:28;;;;;;;;;;;;;;;27.27;52.86;99562.52;1727127;82;20172;-43
2021/06/24 05:22:54;;;;;;;;;;;;;;;27.33;51.83;99566.98;1714231;82;21121;-43
2021/06/24 05:25:21;;;;;;;;;;;;;;;27.41;52.19;99568.81;1739102;80;20172;-43
2021/06/24 05:27:49;;;;;;;;;;;;;;;27.47;51.39;99565.55;1756019;80;20180;-43
2021/06/24 05:30:17;;;;;;;;;;;;;;;27.55;51.18;99566.78;1709883;83;20160;-43
2021/06/24 05:32:45;;;;;;;;;;;;;;;27.62;50.98;99558.10;1710177;83;20465;-43
2021/06/24 05:35:12;;;;;;;;;;;;;;;27.68;50.72;99557.62;1721805;83;21146;-43
2021/06/24 05:37:39;;;;;;;;;;;;;;;27.77;50.46;99567.33;1743439;80;20463;-43
2021/06/24 05:40:08;;;;;;;;;;;;;;;27.85;50.29;99564.33;1718542;82;20506;-43
2021/06/24 05:42:35;;;;;;;;;;;;;;;27.93;50.06;99565.52;1684243;83;20575;-43
2021/06/24 05:45:01;;;;;;;;;;;;;;;28.01;50.51;99569.52;1748181;80;20543;-43
2021/06/24 05:47:27;;;;;;;;;;;;;;;28.09;49.89;99570.70;1701924;83;21159;-43
2021/06/24 05:49:54;;;;;;;;;;;;;;;28.17;49.24;99567.61;1742198;80;20140;-43
2021/06/24 05:52:20;;;;;;;;;;;;;;;28.23;48.81;99568.48;1719845;83;20141;-43
2021/06/24 05:54:46;;;;;;;;;;;;;;;28.29;48.29;99571.55;1717176;83;20712;-43
2021/06/24 05:57:13;;;;;;;;;;;;;;;28.36;48.55;99569.80;1722164;82;20458;-43
2021/06/24 05:59:39;;;;;;;;;;;;;;;28.42;47.43;99567.10;1723908;82;21153;-43
2021/06/24 06:02:07;;;;;;;;;;;;;;;28.49;47.14;99569.55;1719695;83;20098;-43
2021/06/24 06:04:33;;;;;;;;;;;;;;;28.53;47.00;99565.32;1707900;83;20203;-43
2021/06/24 06:07:01;;;;;;;;;;;;;;;28.56;46.52;99571.98;1713667;82;20171;-43
2021/06/24 06:09:28;;;;;;;;;;;;;;;28.60;46.63;99576.75;1712630;82;20203;-43
2021/06/24 06:11:55;;;;;;;;;;;;;;;28.64;46.76;99568.19;1723704;83;21076;-43
2021/06/24 06:14:21;;;;;;;;;;;;;;;28.67;46.90;99568.00;1700659;82;20177;-43
2021/06/24 06:16:48;;;;;;;;;;;;;;;28.71;46.70;99563.65;1702120;82;20174;-45
2021/06/24 06:19:15;;;;;;;;;;;;;;;28.75;46.65;99562.24;1701447;82;20202;-46
2021/06/24 06:21:41;;;;;;;;;;;;;;;28.80;47.36;99568.55;1709302;82;20136;-46
2021/06/24 06:24:08;;;;;;;;;;;;;;;28.84;47.47;99563.55;1708998;82;21140;-45
2021/06/24 06:26:35;;;;;;;;;;;;;;;28.91;47.72;99563.16;1696353;82;20178;-44
2021/06/24 06:29:04;;;;;;;;;;;;;;;29.00;46.98;99565.73;1699871;82;20120;-45
2021/06/24 06:31:32;;;;;;;;;;;;;;;28.79;46.60;99525.15;1672733;85;20175;-43
2021/06/24 06:33:58;;;;;;;;;;;;;;;29.09;46.36;99565.64;1700289;84;20449;-43
2021/06/24 06:36:25;;;;;;;;;;;;;;;29.13;46.17;99557.84;1683079;84;21110;-43
2021/06/24 06:38:51;;;;;;;;;;;;;;;29.17;46.14;99554.23;1673103;85;20501;-43
2021/06/24 06:41:18;;;;;;;;;;;;;;;29.22;46.26;99552.16;1672197;84;20473;-43
2021/06/24 06:43:44;;;;;;;;;;;;;;;29.23;45.62;99550.91;1689980;82;20462;-43
2021/06/24 06:46:10;;;;;;;;;;;;;;;29.23;45.42;99543.31;1702780;82;20615;-43
2021/06/24 06:48:37;;;;;;;;;;;;;;;29.26;45.24;99551.33;1729751;82;21130;-43
2021/06/24 06:51:03;;;;;;;;;;;;;;;29.31;45.52;99546.50;1696201;82;20186;-43
2021/06/24 06:53:30;;;;;;;;;;;;;;;29.38;45.53;99551.70;1686337;82;20099;-43
2021/06/24 06:55:56;;;;;;;;;;;;;;;29.47;44.74;99556.41;1699339;82;20076;-43
2021/06/24 06:58:23;;;;;;;;;;;;;;;29.51;44.12;99552.16;1704082;82;20202;-43
2021/06/24 07:00:50;;;;;;;;;;;;;;;29.58;44.17;99551.75;1721234;82;21147;-43
2021/06/24 07:03:17;;;;;;;;;;;;;;;29.65;43.84;99552.76;1698248;82;20158;-45
2021/06/24 07:05:44;;;;;;;;;;;;;;;29.73;42.88;99554.52;1690879;82;20465;-43
2021/06/24 07:08:10;;;;;;;;;;;;;;;29.83;42.35;99546.78;1711434;82;20172;-43
2021/06/24 07:10:37;;;;;;;;;;;;;;;29.89;41.62;99547.04;1691017;82;20582;-43
2021/06/24 07:13:04;;;;;;;;;;;;;;;30.00;41.22;99557.61;1709463;82;21109;-43
2021/06/24 07:15:30;;;;;;;;;;;;;;;30.12;41.37;99555.09;1720253;82;20154;-43
2021/06/24 07:17:57;;;;;;;;;;;;;;;30.25;41.82;99555.55;1763289;80;20112;-43
2021/06/24 07:20:24;;;;;;;;;;;;;;;30.43;42.00;99555.88;1732658;82;20294;-43
2021/06/24 07:22:50;;;;;;;;;;;;;;;30.60;40.39;99552.66;1732219;82;20525;-43
2021/06/24 07:25:19;;;;;;;;;;;;;;;30.76;39.72;99557.69;1735901;82;21804;-43
2021/06/24 07:27:46;;;;;;;;;;;;;;;30.88;40.46;99559.36;1736194;82;20148;-43
2021/06/24 07:30:13;;;;;;;;;;;;;;;30.96;40.40;99561.08;1735809;82;20563;-44
2021/06/24 07:32:40;;;;;;;;;;;;;;;31.02;39.95;99560.53;1736163;82;20172;-43
2021/06/24 07:35:08;;;;;;;;;;;;;;;31.12;39.66;99565.34;1736103;82;20272;-43
2021/06/24 07:37:35;;;;;;;;;;;;;;;31.23;39.89;99568.22;1736164;82;21132;-43
2021/06/24 07:40:07;;;;;;;;;;;;;;;31.35;40.13;99557.26;1735999;82;20446;-43
2021/06/24 07:42:33;;;;;;;;;;;;;;;31.51;39.64;99563.64;1732901;82;20128;-43
2021/06/24 07:44:59;;;;;;;;;;;;;;;31.65;39.29;99565.56;1732628;83;20184;-43
2021/06/24 07:47:26;;;;;;;;;;;;;;;31.80;38.46;99568.20;1732835;83;20157;-43
2021/06/24 07:49:52;;;;;;;;;;;;;;;31.92;38.07;99564.19;1732596;83;21122;-43
2021/06/24 07:52:19;;;;;;;;;;;;;;;32.05;36.85;99570.78;1734286;82;20565;-43
2021/06/24 07:54:46;;;;;;;;;;;;;;;32.17;37.50;99578.77;1726364;83;20405;-44
2021/06/24 07:57:13;;;;;;;;;;;;;;;32.26;36.67;99581.37;1721977;83;20470;-44
2021/06/24 07:59:40;;;;;;;;;;;;;;;32.32;36.23;99579.36;1723765;83;20208;-43
2021/06/24 08:02:06;;;;;;;;;;;;;;;32.40;36.86;99578.88;1717237;83;21107;-44
2021/06/24 08:04:33;;;;;;;;;;;;;;;32.47;37.73;99584.02;1736144;82;20163;-43
2021/06/24 08:07:01;;;;;;;;;;;;;;;32.52;39.07;99579.83;1723753;83;20176;-44
2021/06/24 08:09:27;;;;;;;;;;;;;;;32.55;38.84;99586.46;1717533;83;20467;-44
2021/06/24 08:11:54;;;;;;;;;;;;;;;32.62;39.29;99577.56;1736361;82;20148;-44
2021/06/24 08:14:23;;;;;;;;;;;;;;;32.68;39.24;99583.34;1719564;82;21442;-44
2021/06/24 08:16:50;;;;;;;;;;;;;;;32.72;38.44;99575.47;1735673;82;20490;-43
2021/06/24 08:19:17;;;;;;;;;;;;;;;32.76;38.72;99575.22;1735543;82;20128;-44
2021/06/24 08:21:44;;;;;;;;;;;;;;;32.76;38.57;99578.02;1735713;82;20141;-44
2021/06/24 08:24:11;;;;;;;;;;;;;;;32.75;39.91;99578.66;1735616;82;20204;-44
2021/06/24 08:26:38;;;;;;;;;;;;;;;32.77;39.81;99574.69;1735634;82;21883;-44
2021/06/24 08:29:04;;;;;;;;;;;;;;;32.87;39.22;99573.08;1735834;82;20097;-44
2021/06/24 08:31:31;;;;;;;;;;;;;;;33.00;39.75;99576.92;1735851;82;20124;-43
2021/06/24 08:33:59;;;;;;;;;;;;;;;33.13;38.95;99575.79;1735600;82;20171;-44
2021/06/24 08:36:26;;;;;;;;;;;;;;;33.18;39.05;99570.08;1735727;82;21008;-43
2021/06/24 08:38:52;;;;;;;;;;;;;;;33.22;39.54;99564.20;1735742;82;22341;-44
2021/06/24 08:41:20;;;;;;;;;;;;;;;33.25;39.71;99557.58;1735720;82;20111;-44
2021/06/24 08:43:48;;;;;;;;;;;;;;;33.26;38.53;99557.70;1735802;82;20139;-44
2021/06/24 08:46:15;;;;;;;;;;;;;;;33.28;38.97;99560.76;1735753;82;20221;-44
2021/06/24 08:48:42;;;;;;;;;;;;;;;33.35;38.77;99555.41;1735560;82;20149;-44
2021/06/24 08:51:09;;;;;;;;;;;;;;;33.43;38.62;99557.05;1735283;81;21156;-44
2021/06/24 08:53:36;;;;;;;;;;;;;;;33.56;38.98;99558.70;1726280;82;20128;-44
2021/06/24 08:56:02;;;;;;;;;;;;;;;33.67;37.96;99555.12;1726202;82;20149;-44
2021/06/24 08:58:29;;;;;;;;;;;;;;;33.72;37.18;99560.77;1726373;83;20129;-43
2021/06/24 09:00:56;;;;;;;;;;;;;;;33.74;36.91;99556.81;1726354;83;20169;-44
2021/06/24 09:03:24;;;;;;;;;;;;;;;33.74;37.54;99559.63;1726172;82;21149;-44
2021/06/24 09:06:00;;;;;;;;;;;;;;;33.73;38.33;99560.90;1725615;83;20141;-44
2021/06/24 09:08:53;;;;;;;;;;;;;;;33.67;37.31;99563.55;1726423;83;20144;-44
2021/06/24 09:11:23;;;;;;;;;;;;;;;33.62;37.24;99553.84;1725592;83;20208;-44
2021/06/24 09:14:10;;;;;;;;;;;;;;;33.56;37.88;99550.27;1718569;83;20186;-43
2021/06/24 09:16:40;;;;;;;;;;;;;;;33.49;38.56;99548.76;1703251;84;21166;-44
2021/06/24 09:19:19;;;;;;;;;;;;;;;33.43;38.49;99548.63;1703076;84;20495;-44
2021/06/24 09:21:53;;;;;;;;;;;;;;;33.37;39.13;99544.41;1700163;84;20107;-44
2021/06/24 09:24:33;;;;;;;;;;;;;;;33.33;40.97;99545.94;1699989;84;20946;-44
2021/06/24 09:27:02;;;;;;;;;;;;;;;33.28;41.97;99543.90;1700081;84;20143;-43
2021/06/24 09:29:29;;;;;;;;;;;;;;;33.25;41.54;99550.55;1700368;84;21115;-43
2021/06/24 09:31:58;;;;;;;;;;;;;;;33.20;43.48;99543.66;1700031;84;20094;-44
2021/06/24 09:34:25;;;;;;;;;;;;;;;33.17;43.83;99551.05;1692435;83;20153;-43
2021/06/24 09:36:53;;;;;;;;;;;;;;;33.09;43.03;99545.78;1704127;83;20124;-43
2021/06/24 09:39:28;;;;;;;;;;;;;;;32.98;42.10;99547.16;1692613;83;20183;-43
2021/06/24 09:42:08;;;;;;;;;;;;;;;32.87;42.31;99549.98;1702595;83;21150;-44
2021/06/24 09:44:37;;;;;;;;;;;;;;;32.76;42.67;99551.34;1704986;83;20175;-44
2021/06/24 09:47:26;;;;;;;;;;;;;;;32.67;43.00;99545.34;1732355;83;20497;-44
2021/06/24 09:50:08;;;;;;;;;;;;;;;32.61;42.72;99542.34;1709008;83;20158;-43
2021/06/24 09:52:34;;;;;;;;;;;;;;;32.57;42.59;99546.03;1699884;83;20186;-43
2021/06/24 09:55:07;;;;;;;;;;;;;;;32.53;42.00;99549.73;1682268;84;21149;-43
2021/06/24 09:57:36;;;;;;;;;;;;;;;32.51;42.65;99550.86;1707386;83;20452;-43
2021/06/24 10:00:25;;;;;;;;;;;;;;;32.49;43.78;99542.94;1682379;84;20160;-43
2021/06/24 10:03:08;;;;;;;;;;;;;;;32.50;45.24;99543.70;1677479;83;20173;-43
2021/06/24 10:05:36;;;;;;;;;;;;;;;32.56;44.97;99536.07;1713390;83;20337;-44
2021/06/24 10:08:04;;;;;;;;;;;;;;;32.62;43.54;99529.21;1699986;83;21188;-43
2021/06/24 10:10:31;;;;;;;;;;;;;;;32.74;43.10;99532.83;1727683;83;20216;-43
2021/06/24 10:12:57;;;;;;;;;;;;;;;32.84;42.88;99534.13;1723191;83;20504;-44
2021/06/24 10:15:24;;;;;;;;;;;;;;;32.94;42.77;99531.20;1716869;83;20177;-44
2021/06/24 10:17:53;;;;;;;;;;;;;;;33.05;42.67;99531.23;1726813;83;20533;-44
2021/06/24 10:20:21;;;;;;;;;;;;;;;33.17;42.59;99530.61;1726823;83;21105;-43
2021/06/24 10:22:51;;;;;;;;;;;;;;;33.26;41.52;99527.53;1726722;83;20152;-43
2021/06/24 10:25:17;;;;;;;;;;;;;;;33.36;41.78;99521.02;1726164;83;20179;-43
2021/06/24 10:27:45;;;;;;;;;;;;;;;33.45;41.14;99523.59;1726987;83;20579;-43
2021/06/24 10:30:20;;;;;;;;;;;;;;;33.56;39.77;99518.70;1726905;83;20192;-43
2021/06/24 10:33:01;;;;;;;;;;;;;;;33.69;39.92;99521.03;1726703;83;21088;-44
2021/06/24 10:35:32;;;;;;;;;;;;;;;33.82;40.07;99525.47;1726742;83;20180;-43
2021/06/24 10:37:58;;;;;;;;;;;;;;;33.99;39.08;99521.95;1726952;83;20097;-43
2021/06/24 10:40:33;;;;;;;;;;;;;;;34.17;36.77;99515.64;1726494;83;20180;-43
2021/06/24 10:43:04;;;;;;;;;;;;;;;34.37;35.93;99510.44;1726406;83;20180;-43
2021/06/24 10:45:33;;;;;;;;;;;;;;;34.58;35.20;99510.08;1700336;83;20087;-43
2021/06/24 10:48:00;;;;;;;;;;;;;;;34.77;34.78;99507.55;1697694;84;20182;-44
2021/06/24 10:50:31;;;;;;;;;;;;;;;34.94;34.66;99510.91;1667972;84;20147;-44
2021/06/24 10:53:07;;;;;;;;;;;;;;;35.18;34.13;99516.64;1725260;83;21972;-44
2021/06/24 10:55:37;;;;;;;;;;;;;;;35.42;33.64;99509.62;1732479;83;20150;-44
2021/06/24 10:58:14;;;;;;;;;;;;;;;35.65;31.74;99510.16;1732111;83;21172;-44
2021/06/24 11:00:55;;;;;;;;;;;;;;;35.77;31.43;99513.67;1705992;83;20182;-44
2021/06/24 11:03:27;;;;;;;;;;;;;;;35.86;30.82;99511.91;1724377;82;20197;-43
2021/06/24 11:05:55;;;;;;;;;;;;;;;35.88;30.70;99502.25;1711388;83;20156;-43
2021/06/24 11:08:29;;;;;;;;;;;;;;;35.89;30.23;99496.72;1726670;83;20184;-44
2021/06/24 11:11:02;;;;;;;;;;;;;;;35.85;31.03;99494.85;1726953;83;21124;-43
2021/06/24 11:13:40;;;;;;;;;;;;;;;35.83;31.53;99496.02;1725903;83;20196;-44
2021/06/24 11:16:15;;;;;;;;;;;;;;;35.82;31.97;99500.16;1723389;82;20239;-43
2021/06/24 11:18:52;;;;;;;;;;;;;;;35.81;32.21;99497.21;1722965;83;20136;-44
2021/06/24 11:21:35;;;;;;;;;;;;;;;35.81;31.88;99504.27;1721478;82;20176;-44
2021/06/24 11:24:07;;;;;;;;;;;;;;;35.81;31.99;99492.98;1695834;83;21174;-44
2021/06/24 11:26:41;;;;;;;;;;;;;;;35.82;32.13;99494.52;1695069;82;20132;-44
2021/06/24 11:34:35;;;;;;;;;;;;;;;36.04;32.86;99480.89;1713480;82;20185;-44
2021/06/24 11:37:05;;;;;;;;;;;;;;;36.20;32.11;99486.89;1704088;82;21203;-44
2021/06/24 11:39:35;;;;;;;;;;;;;;;36.42;31.84;99480.28;1697516;84;20100;-44
2021/06/24 11:42:12;;;;;;;;;;;;;;;36.70;31.59;99477.08;1676958;85;20135;-44
2021/06/24 11:44:48;;;;;;;;;;;;;;;37.03;31.37;99476.45;1686133;83;20193;-44
2021/06/24 11:47:14;;;;;;;;;;;;;;;37.39;31.14;99469.91;1706119;83;20202;-44
2021/06/24 12:04:12;;;;;;;;;;;;;;;39.42;27.61;99454.38;1679983;83;21161;-44
2021/06/24 12:06:54;;;;;;;;;;;;;;;39.72;27.17;99453.16;1699988;84;20093;-44
2021/06/24 12:09:26;;;;;;;;;;;;;;;39.96;27.03;99454.82;1703464;83;20648;-44
2021/06/24 12:11:57;;;;;;;;;;;;;;;40.29;27.27;99453.08;1695068;82;20417;-44
2021/06/24 12:14:28;;;;;;;;;;;;;;;40.69;26.67;99454.82;1692337;82;20665;-44
2021/06/24 12:17:10;;;;;;;;;;;;;;;41.01;25.77;99461.38;1729764;82;21145;-44
2021/06/24 12:20:03;;;;;;;;;;;;;;;41.29;25.48;99460.47;1725487;82;20148;-44
2021/06/24 12:22:36;;;;;;;;;;;;;;;41.53;25.99;99459.23;1728328;82;20139;-44
2021/06/24 12:25:12;;;;;;;;;;;;;;;41.78;24.61;99457.91;1748421;82;20496;-44
2021/06/24 12:27:47;;;;;;;;;;;;;;;41.97;24.58;99461.14;1737314;82;20182;-44
2021/06/24 12:30:18;;;;;;;;;;;;;;;42.19;24.73;99460.17;1729587;82;21076;-46
2021/06/24 12:32:56;;;;;;;;;;;;;;;42.38;24.30;99465.52;1725378;82;20102;-47
2021/06/24 12:35:28;;;;;;;;;;;;;;;42.47;24.35;99461.28;1735521;82;20212;-47
2021/06/24 12:37:57;;;;;;;;;;;;;;;42.62;24.19;99456.91;1726389;82;20567;-47
2021/06/24 12:40:27;;;;;;;;;;;;;;;42.75;23.54;99457.35;1732139;82;20129;-47
2021/06/24 12:42:56;;;;;;;;;;;;;;;42.88;23.50;99456.39;1720515;82;21144;-47
2021/06/24 12:45:24;;;;;;;;;;;;;;;43.06;23.52;99460.04;1719109;82;20109;-47
2021/06/24 12:47:50;;;;;;;;;;;;;;;43.18;23.31;99452.56;1718823;82;20161;-47
2021/06/24 12:50:20;;;;;;;;;;;;;;;43.29;23.42;99457.00;1720338;82;20132;-47